Time;durP1;ratioP1;P1;durP2;ratioP2;P2;SDS_P1;SDS_P2;PMS_P1;PMS_P2;Temp;Humidity;BMP_temperature;BMP_pressure;BME280_temperature;BME280_humidity;BME280_pressure;Samples;Min_cycle;Max_cycle;Signal;HPM_P1;HPM_P2
2021/04/13 00:02:39;;;;;;;6.13;1.20;;;2.10;94.90;;;;;;5032657;28;20045;-72
2021/04/13 00:05:15;;;;;;;6.40;1.53;;;2.10;94.90;;;;;;5027226;28;20037;-72
2021/04/13 00:07:44;;;;;;;8.90;1.53;;;2.10;94.90;;;;;;5012866;28;20068;-72
2021/04/13 00:10:17;;;;;;;6.97;1.50;;;2.10;94.80;;;;;;5027823;28;20037;-72
2021/04/13 00:12:45;;;;;;;6.10;1.47;;;2.10;94.80;;;;;;5020873;28;20140;-72
2021/04/13 00:15:16;;;;;;;8.30;1.30;;;2.00;94.70;;;;;;5030752;28;20041;-72
2021/04/13 00:17:45;;;;;;;7.85;1.60;;;2.00;94.80;;;;;;5016663;28;20560;-72
2021/04/13 00:20:20;;;;;;;10.60;1.20;;;1.90;94.70;;;;;;5028891;28;20049;-72
2021/04/13 00:22:47;;;;;;;4.40;1.30;;;1.80;94.70;;;;;;5036220;28;20091;-72
2021/04/13 00:25:32;;;;;;;8.70;1.43;;;1.80;94.80;;;;;;5011408;28;20032;-72
2021/04/13 00:28:00;;;;;;;6.87;1.07;;;1.70;94.90;;;;;;5009401;28;20049;-72
2021/04/13 00:30:38;;;;;;;7.73;1.50;;;1.70;94.90;;;;;;5044066;28;20372;-72
2021/04/13 00:33:05;;;;;;;7.17;2.00;;;1.70;94.90;;;;;;5015921;28;20033;-72
2021/04/13 00:35:41;;;;;;;8.50;1.47;;;1.60;94.80;;;;;;5026221;28;20044;-72
2021/04/13 00:38:25;;;;;;;11.20;1.80;;;1.60;94.90;;;;;;5047592;28;20190;-73
2021/04/13 00:40:53;;;;;;;8.73;1.43;;;1.50;95.00;;;;;;5037844;28;20111;-73
2021/04/13 00:43:23;;;;;;;7.47;1.80;;;1.70;95.10;;;;;;5044840;28;20033;-73
2021/04/13 00:45:49;;;;;;;8.48;1.67;;;1.60;95.20;;;;;;5027079;28;20079;-73
2021/04/13 00:48:24;;;;;;;6.07;1.30;;;1.50;95.20;;;;;;5015972;28;20037;-73
2021/04/13 00:50:52;;;;;;;6.40;1.43;;;1.50;95.20;;;;;;5031901;28;20064;-73
2021/04/13 00:53:23;;;;;;;7.00;1.20;;;1.50;95.20;;;;;;5019579;28;20115;-73
2021/04/13 00:55:56;;;;;;;6.80;1.40;;;1.40;95.20;;;;;;5033745;28;20044;-73
2021/04/13 00:58:24;;;;;;;13.17;1.53;;;1.40;95.40;;;;;;5041139;28;20045;-74
2021/04/13 01:01:01;;;;;;;5.83;1.30;;;1.40;95.40;;;;;;5034808;28;20064;-73
2021/04/13 01:03:31;;;;;;;7.10;1.40;;;1.40;95.50;;;;;;5043116;28;20073;-73
2021/04/13 01:06:02;;;;;;;8.52;1.50;;;1.40;95.60;;;;;;5039377;28;20057;-74
2021/04/13 01:08:39;;;;;;;9.35;1.40;;;1.40;95.70;;;;;;5043601;28;20424;-73
2021/04/13 01:11:11;;;;;;;7.60;1.37;;;1.50;95.80;;;;;;5022103;28;20221;-74
2021/04/13 01:13:50;;;;;;;11.30;1.53;;;1.50;95.70;;;;;;5032168;28;20120;-71
2021/04/13 01:16:24;;;;;;;13.73;1.85;;;1.50;95.70;;;;;;5027050;28;20049;-73
2021/04/13 01:19:11;;;;;;;7.33;1.67;;;1.50;95.80;;;;;;5021053;28;20096;-72
2021/04/13 01:21:57;;;;;;;5.53;1.60;;;1.50;95.70;;;;;;5031422;28;20110;-71
2021/04/13 01:24:28;;;;;;;10.93;1.80;;;1.60;96.00;;;;;;5036591;28;20374;-71
2021/04/13 01:26:55;;;;;;;8.50;1.60;;;1.70;96.00;;;;;;5041100;28;20745;-71
2021/04/13 01:29:25;;;;;;;9.63;1.90;;;1.80;95.90;;;;;;5039361;28;20446;-71
2021/04/13 01:31:59;;;;;;;11.88;1.70;;;1.70;95.90;;;;;;5010311;28;20049;-72
2021/04/13 01:34:34;;;;;;;10.37;1.70;;;1.60;95.90;;;;;;5038861;28;20033;-71
2021/04/13 01:37:18;;;;;;;7.87;1.57;;;1.70;96.00;;;;;;5036556;28;20044;-72
2021/04/13 01:39:58;;;;;;;11.07;2.10;;;1.70;96.10;;;;;;5022820;28;20599;-72
2021/04/13 01:42:26;;;;;;;11.93;2.22;;;1.70;96.10;;;;;;5033043;28;20044;-73
2021/04/13 01:45:03;;;;;;;9.23;1.90;;;1.70;96.10;;;;;;5042968;28;20068;-73
2021/04/13 01:47:33;;;;;;;7.67;1.40;;;1.70;96.20;;;;;;5029683;28;20499;-73
2021/04/13 01:50:39;;;;;;;11.90;1.85;;;1.80;96.20;;;;;;5009234;28;20496;-73
2021/04/13 01:53:16;;;;;;;8.70;2.00;;;1.80;96.20;;;;;;5031834;28;20042;-73
2021/04/13 01:55:54;;;;;;;10.93;1.17;;;1.80;96.10;;;;;;5033916;28;20106;-73
2021/04/13 01:58:30;;;;;;;10.63;1.87;;;1.80;96.10;;;;;;5030255;28;20041;-72
2021/04/13 02:01:09;;;;;;;6.67;1.50;;;1.80;96.10;;;;;;5031813;28;20045;-72
2021/04/13 02:03:44;;;;;;;10.60;1.60;;;1.90;96.10;;;;;;5037891;28;20431;-72
2021/04/13 02:06:20;;;;;;;11.03;1.70;;;1.70;96.00;;;;;;5040818;28;20076;-72
2021/04/13 02:08:52;;;;;;;9.03;1.53;;;1.70;96.10;;;;;;5044235;28;20505;-72
2021/04/13 02:11:28;;;;;;;9.13;1.50;;;1.70;96.10;;;;;;5030483;28;20250;-75
2021/04/13 02:13:59;;;;;;;7.70;1.50;;;1.70;96.30;;;;;;4994207;28;20615;-72
2021/04/13 02:16:56;;;;;;;12.20;1.40;;;1.70;96.20;;;;;;5019301;28;20045;-72
2021/04/13 02:19:27;;;;;;;8.90;2.57;;;1.70;96.10;;;;;;5032479;28;20044;-74
2021/04/13 02:22:02;;;;;;;10.63;1.40;;;1.60;96.10;;;;;;5028872;28;20038;-74
2021/04/13 02:24:33;;;;;;;11.60;1.63;;;1.60;96.10;;;;;;5028855;28;20053;-74
2021/04/13 02:27:12;;;;;;;9.90;1.70;;;1.50;96.10;;;;;;5032673;28;20037;-74
2021/04/13 02:29:45;;;;;;;9.43;1.67;;;1.50;96.10;;;;;;5029002;28;20048;-74
2021/04/13 02:32:30;;;;;;;11.70;2.10;;;1.40;96.10;;;;;;5028469;28;20046;-74
2021/04/13 02:35:01;;;;;;;14.33;2.67;;;1.40;96.20;;;;;;5015000;28;20033;-71
2021/04/13 02:37:33;;;;;;;8.90;1.90;;;1.30;96.10;;;;;;5035968;28;20107;-70
2021/04/13 02:40:12;;;;;;;9.87;1.90;;;1.40;96.20;;;;;;5041852;28;20504;-71
2021/04/13 02:42:43;;;;;;;8.23;1.67;;;1.40;96.30;;;;;;5043695;28;20817;-71
2021/04/13 02:45:12;;;;;;;9.37;1.90;;;1.40;96.30;;;;;;5035505;28;20048;-71
2021/04/13 02:47:45;;;;;;;10.67;2.10;;;1.40;96.20;;;;;;5048384;28;20032;-71
2021/04/13 02:50:15;;;;;;;10.87;2.17;;;1.40;96.30;;;;;;5024403;28;20041;-71
2021/04/13 02:52:47;;;;;;;9.80;2.00;;;1.30;96.30;;;;;;5047064;28;20053;-73
2021/04/13 02:55:41;;;;;;;6.23;1.77;;;1.30;96.30;;;;;;5042194;28;20045;-72
2021/04/13 02:58:10;;;;;;;13.37;2.27;;;1.30;96.30;;;;;;5036755;28;20128;-72
2021/04/13 03:00:43;;;;;;;8.70;1.80;;;1.30;96.30;;;;;;5022763;28;20040;-73
2021/04/13 03:03:28;;;;;;;14.80;2.27;;;1.30;96.30;;;;;;5026238;28;20140;-73
2021/04/13 03:05:55;;;;;;;9.47;2.03;;;1.20;96.30;;;;;;5031128;28;20049;-72
2021/04/13 03:08:22;;;;;;;16.23;2.77;;;1.20;96.30;;;;;;5037462;28;20396;-72
2021/04/13 03:10:54;;;;;;;8.43;1.90;;;1.20;96.30;;;;;;5039950;28;20040;-74
2021/04/13 03:13:23;;;;;;;9.53;2.10;;;1.10;96.30;;;;;;5031854;28;20099;-72
2021/04/13 03:15:52;;;;;;;11.07;1.90;;;1.20;96.40;;;;;;5028264;28;20492;-73
2021/04/13 03:18:29;;;;;;;10.13;1.93;;;1.10;96.40;;;;;;5037691;28;20128;-72
2021/04/13 03:21:05;;;;;;;10.83;2.20;;;1.20;96.40;;;;;;5034030;28;20120;-73
2021/04/13 03:23:32;;;;;;;15.13;2.53;;;1.10;96.70;;;;;;5029035;28;20061;-72
2021/04/13 03:26:22;;;;;;;14.60;2.30;;;1.20;96.40;;;;;;5039311;28;20092;-72
2021/04/13 03:28:55;;;;;;;12.20;1.88;;;1.10;96.40;;;;;;4981892;28;20061;-73
2021/04/13 03:31:23;;;;;;;16.80;2.07;;;1.10;96.40;;;;;;5032561;28;20037;-73
2021/04/13 03:33:50;;;;;;;14.40;2.27;;;1.10;96.30;;;;;;5022370;28;20053;-73
2021/04/13 03:36:21;;;;;;;14.63;1.93;;;0.90;96.30;;;;;;4988697;28;20400;-72
2021/04/13 03:38:52;;;;;;;10.30;2.00;;;1.00;96.50;;;;;;5009791;28;20045;-73
2021/04/13 03:41:20;;;;;;;12.07;2.72;;;1.00;96.50;;;;;;5019983;28;20144;-73
2021/04/13 03:43:53;;;;;;;14.33;2.63;;;1.00;96.50;;;;;;5014251;28;20040;-73
2021/04/13 03:46:20;;;;;;;11.50;2.40;;;1.00;96.50;;;;;;5041889;28;20119;-71
2021/04/13 03:48:49;;;;;;;10.43;1.77;;;1.00;96.40;;;;;;4999819;28;20049;-71
2021/04/13 03:51:34;;;;;;;11.53;2.13;;;0.90;96.30;;;;;;5021857;28;20259;-71
2021/04/13 03:54:27;;;;;;;9.87;2.10;;;0.90;96.30;;;;;;5041308;28;20033;-71
2021/04/13 03:56:53;;;;;;;12.77;1.97;;;0.80;96.30;;;;;;5032994;28;20116;-71
2021/04/13 03:59:22;;;;;;;10.70;2.00;;;0.80;96.40;;;;;;5006731;28;20072;-70
2021/04/13 04:01:49;;;;;;;18.43;2.57;;;0.80;96.50;;;;;;5037436;28;20520;-70
2021/04/13 04:04:34;;;;;;;15.07;2.57;;;0.80;96.40;;;;;;5034242;28;20513;-70
2021/04/13 04:07:22;;;;;;;11.93;2.00;;;0.80;96.50;;;;;;5025350;28;20535;-70
2021/04/13 04:09:48;;;;;;;15.53;2.77;;;0.80;96.60;;;;;;5021896;28;20529;-70
2021/04/13 04:12:20;;;;;;;15.43;2.10;;;0.80;96.60;;;;;;5010775;28;20262;-70
2021/04/13 04:15:09;;;;;;;24.57;2.60;;;0.80;96.60;;;;;;5012848;28;20045;-71
2021/04/13 04:17:45;;;;;;;12.13;1.93;;;0.80;96.70;;;;;;5017497;28;20080;-70
2021/04/13 04:20:14;;;;;;;11.30;1.97;;;0.90;96.80;;;;;;5010527;28;20132;-70
2021/04/13 04:22:54;;;;;;;13.73;2.53;;;1.00;96.80;;;;;;5019472;28;20530;-70
2021/04/13 04:25:23;;;;;;;14.70;2.57;;;1.00;96.80;;;;;;5012605;28;20041;-70
2021/04/13 04:27:54;;;;;;;17.67;2.50;;;1.10;96.90;;;;;;5010235;28;20499;-72
2021/04/13 04:30:22;;;;;;;13.60;2.63;;;1.10;96.80;;;;;;5018575;28;20038;-70
2021/04/13 04:32:49;;;;;;;12.43;2.37;;;1.10;96.90;;;;;;5014796;28;20069;-73
2021/04/13 04:35:34;;;;;;;10.93;2.10;;;1.10;96.90;;;;;;5013512;28;20049;-70
2021/04/13 04:38:10;;;;;;;13.43;2.13;;;1.10;96.90;;;;;;4989334;28;20044;-70
2021/04/13 04:41:05;;;;;;;16.03;3.00;;;1.20;96.90;;;;;;5015995;28;20038;-71
2021/04/13 04:43:58;;;;;;;13.80;2.50;;;1.20;96.90;;;;;;5010597;28;20042;-71
2021/04/13 04:46:34;;;;;;;11.23;1.97;;;1.30;97.00;;;;;;5005836;28;20168;-71
2021/04/13 04:49:12;;;;;;;15.13;1.97;;;1.20;97.00;;;;;;5021077;28;20050;-70
2021/04/13 04:51:39;;;;;;;15.33;2.90;;;1.40;97.30;;;;;;5008489;28;20092;-71
2021/04/13 04:54:09;;;;;;;12.33;2.10;;;1.40;97.00;;;;;;5019897;28;20549;-71
2021/04/13 04:56:35;;;;;;;13.30;2.37;;;1.50;97.00;;;;;;5016522;28;20125;-70
2021/04/13 04:59:01;;;;;;;15.33;2.53;;;1.60;97.00;;;;;;5026564;28;20390;-71
2021/04/13 05:01:27;;;;;;;17.57;3.10;;;1.50;96.80;;;;;;5023524;28;20069;-72
2021/04/13 05:03:54;;;;;;;11.30;2.50;;;1.60;96.90;;;;;;5021833;28;20088;-72
2021/04/13 05:06:20;;;;;;;15.27;2.53;;;1.60;96.90;;;;;;5012890;28;20385;-73
2021/04/13 05:08:47;;;;;;;14.03;2.20;;;1.60;96.80;;;;;;5023025;28;20033;-72
2021/04/13 05:11:13;;;;;;;6.90;1.97;;;1.60;96.80;;;;;;5028080;28;20487;-72
2021/04/13 05:13:39;;;;;;;10.27;2.27;;;1.70;96.80;;;;;;5028350;28;20037;-72
2021/04/13 05:16:05;;;;;;;14.30;2.80;;;1.70;96.80;;;;;;5030164;28;20495;-74
2021/04/13 05:18:32;;;;;;;12.30;2.10;;;1.70;96.80;;;;;;5045553;28;20448;-72
2021/04/13 05:20:58;;;;;;;11.00;1.80;;;1.80;96.70;;;;;;5017492;28;20061;-73
2021/04/13 05:23:24;;;;;;;14.87;2.13;;;1.80;96.70;;;;;;5027855;28;20103;-72
2021/04/13 05:25:50;;;;;;;14.83;2.47;;;1.80;96.60;;;;;;5029481;28;20503;-73
2021/04/13 05:28:17;;;;;;;12.33;1.93;;;1.90;96.60;;;;;;5039667;28;20041;-72
2021/04/13 05:30:43;;;;;;;16.53;2.30;;;1.90;96.60;;;;;;5026768;28;20243;-72
2021/04/13 05:33:10;;;;;;;11.10;1.93;;;2.00;96.60;;;;;;5033343;28;20041;-73
2021/04/13 05:35:37;;;;;;;14.23;2.67;;;2.00;96.50;;;;;;5024803;28;20061;-72
2021/04/13 05:38:12;;;;;;;12.33;2.17;;;2.10;96.50;;;;;;5024533;28;20044;-72
2021/04/13 05:40:39;;;;;;;11.33;1.90;;;2.20;96.40;;;;;;5028402;28;20060;-72
2021/04/13 05:43:06;;;;;;;10.40;2.00;;;2.20;96.40;;;;;;5017914;28;20530;-72
2021/04/13 05:45:37;;;;;;;14.73;2.30;;;2.20;96.30;;;;;;5023117;28;20043;-70
2021/04/13 05:48:03;;;;;;;21.73;2.90;;;2.30;96.30;;;;;;5032566;28;20083;-71
2021/04/13 05:50:33;;;;;;;10.27;2.30;;;2.40;96.30;;;;;;5038970;28;20037;-71
2021/04/13 05:53:00;;;;;;;12.07;1.77;;;2.40;96.20;;;;;;5041009;28;20053;-71
2021/04/13 05:55:26;;;;;;;15.03;2.63;;;2.50;96.10;;;;;;5010168;28;20029;-70
2021/04/13 05:57:54;;;;;;;17.87;2.87;;;2.60;96.00;;;;;;5039529;28;20052;-70
2021/04/13 06:00:24;;;;;;;10.93;2.27;;;2.70;95.90;;;;;;5040063;28;20087;-70
2021/04/13 06:02:54;;;;;;;10.93;2.37;;;2.70;95.80;;;;;;5039741;28;20088;-71
2021/04/13 06:05:26;;;;;;;9.63;1.95;;;2.80;95.80;;;;;;5039081;28;20033;-70
2021/04/13 06:07:54;;;;;;;10.33;2.03;;;2.90;95.80;;;;;;5024148;28;20074;-70
2021/04/13 06:10:22;;;;;;;11.13;2.00;;;3.00;95.70;;;;;;5029723;28;20049;-70
2021/04/13 06:12:51;;;;;;;11.10;2.27;;;3.00;95.60;;;;;;5021238;28;20077;-70
2021/04/13 06:15:19;;;;;;;9.80;1.60;;;3.10;95.50;;;;;;5020636;28;20114;-71
2021/04/13 06:17:45;;;;;;;13.27;2.60;;;3.20;95.40;;;;;;5018657;28;20073;-70
2021/04/13 06:20:11;;;;;;;11.43;2.27;;;3.40;95.30;;;;;;5019481;28;20485;-70
2021/04/13 06:22:42;;;;;;;11.30;2.05;;;3.40;95.20;;;;;;5018400;28;20105;-71
2021/04/13 06:25:08;;;;;;;15.53;1.90;;;3.50;95.00;;;;;;5020401;28;20559;-71
2021/04/13 06:27:34;;;;;;;7.57;1.20;;;3.60;94.80;;;;;;5024137;28;20034;-71
2021/04/13 06:30:00;;;;;;;11.27;2.23;;;3.70;94.60;;;;;;5036760;28;20053;-72
2021/04/13 06:32:26;;;;;;;13.10;2.17;;;3.80;94.20;;;;;;4998746;28;20120;-73
2021/04/13 06:34:52;;;;;;;11.87;2.17;;;3.90;94.10;;;;;;5020362;28;20057;-73
2021/04/13 06:37:18;;;;;;;11.03;1.87;;;4.00;93.90;;;;;;5010574;28;21022;-73
2021/04/13 06:39:44;;;;;;;11.37;1.70;;;4.10;94.00;;;;;;5014733;28;20043;-73
2021/04/13 06:42:43;;;;;;;12.17;2.60;;;4.20;93.70;;;;;;5015347;28;20045;-73
2021/04/13 06:45:39;;;;;;;7.93;1.70;;;4.30;93.50;;;;;;5016038;28;20042;-73
2021/04/13 06:48:33;;;;;;;8.83;2.13;;;4.50;93.30;;;;;;5015040;28;20440;-73
2021/04/13 06:51:02;;;;;;;7.83;1.80;;;4.60;92.90;;;;;;5018366;28;21159;-72
2021/04/13 06:53:49;;;;;;;10.30;2.23;;;4.70;92.50;;;;;;5018443;28;20087;-73
2021/04/13 06:56:36;;;;;;;9.10;1.20;;;4.80;92.20;;;;;;5019671;28;20428;-73
2021/04/13 06:59:25;;;;;;;6.77;1.13;;;4.90;91.70;;;;;;5016738;28;20034;-73
2021/04/13 07:02:05;;;;;;;13.13;2.47;;;5.00;91.90;;;;;;5017024;28;20048;-73
2021/04/13 07:04:48;;;;;;;9.85;2.05;;;5.20;91.50;;;;;;5013931;28;20052;-73
2021/04/13 07:07:33;;;;;;;10.00;1.23;;;5.30;91.60;;;;;;5021919;28;20049;-73
2021/04/13 07:10:15;;;;;;;7.97;1.50;;;5.40;90.70;;;;;;5037896;28;21422;-72
2021/04/13 07:13:06;;;;;;;13.97;1.60;;;5.50;90.70;;;;;;5037213;28;20049;-73
2021/04/13 07:15:39;;;;;;;;;;;5.80;90.10;;;;;;4997139;28;20151;-73
2021/04/13 07:18:25;;;;;;;11.83;1.60;;;5.80;88.50;;;;;;5016731;28;19921;-73
2021/04/13 07:21:03;;;;;;;11.17;1.73;;;5.90;88.40;;;;;;5036440;28;20049;-73
2021/04/13 07:23:43;;;;;;;9.63;1.37;;;6.00;88.60;;;;;;5031076;28;20478;-73
2021/04/13 07:26:30;;;;;;;6.07;1.53;;;6.20;88.40;;;;;;5041009;28;20041;-73
2021/04/13 07:29:08;;;;;;;7.60;1.63;;;6.30;85.70;;;;;;5037557;28;20602;-73
2021/04/13 07:31:53;;;;;;;12.30;1.77;;;6.40;85.70;;;;;;5041463;28;20045;-72
2021/04/13 07:34:20;;;;;;;9.43;1.27;;;6.50;85.90;;;;;;5042619;28;20086;-73
2021/04/13 07:36:55;;;;;;;11.03;1.63;;;6.60;84.90;;;;;;5029797;28;20124;-73
2021/04/13 07:39:24;;;;;;;14.50;1.90;;;6.70;82.00;;;;;;5034643;28;20043;-73
2021/04/13 07:41:55;;;;;;;9.50;1.80;;;6.70;83.60;;;;;;5045611;28;20091;-73
2021/04/13 07:44:38;;;;;;;9.90;1.37;;;6.80;83.30;;;;;;5039889;28;20668;-73
2021/04/13 07:47:36;;;;;;;10.63;1.37;;;7.00;82.60;;;;;;5037949;28;20512;-73
2021/04/13 07:50:03;;;;;;;12.07;1.20;;;7.00;79.60;;;;;;5029636;28;20053;-73
2021/04/13 07:52:56;;;;;;;5.53;1.20;;;7.10;78.60;;;;;;5046340;28;20260;-73
2021/04/13 07:55:28;;;;;;;4.63;1.10;;;7.20;79.00;;;;;;5044573;28;20041;-73
2021/04/13 07:58:09;;;;;;;7.80;1.20;;;7.20;77.50;;;;;;5040612;28;20041;-72
2021/04/13 08:00:39;;;;;;;;;;;7.30;78.60;;;;;;5023407;28;20403;-73
2021/04/13 08:03:20;;;;;;;6.75;1.25;;;7.30;78.20;;;;;;5038756;28;19921;-73
2021/04/13 08:05:49;;;;;;;9.60;1.40;;;7.40;78.70;;;;;;5043833;28;20518;-74
2021/04/13 08:08:47;;;;;;;8.23;1.20;;;7.60;77.50;;;;;;5026271;28;20054;-73
2021/04/13 08:11:17;;;;;;;8.07;1.10;;;7.70;73.40;;;;;;5002328;28;20054;-73
2021/04/13 08:13:49;;;;;;;6.87;1.30;;;7.80;70.90;;;;;;5031468;28;20045;-73
2021/04/13 08:16:37;;;;;;;5.63;0.87;;;7.70;70.90;;;;;;5025504;28;20065;-73
2021/04/13 08:19:24;;;;;;;12.13;1.20;;;7.80;68.80;;;;;;5015863;28;20319;-74
2021/04/13 08:22:07;;;;;;;7.00;1.67;;;7.80;70.30;;;;;;5014717;28;20041;-74
2021/04/13 08:24:37;;;;;;;6.13;1.00;;;7.90;68.90;;;;;;5022686;28;20467;-73
2021/04/13 08:27:28;;;;;;;6.90;0.70;;;8.00;69.20;;;;;;5016419;28;20034;-73
2021/04/13 08:30:03;;;;;;;5.00;0.70;;;8.10;66.20;;;;;;5008261;28;20078;-74
2021/04/13 08:32:56;;;;;;;7.40;1.40;;;8.10;66.60;;;;;;5023419;28;20038;-73
2021/04/13 08:35:27;;;;;;;8.43;1.10;;;8.10;68.20;;;;;;5022438;28;20064;-74
2021/04/13 08:37:56;;;;;;;5.00;0.80;;;8.30;69.00;;;;;;5021597;28;20049;-73
2021/04/13 08:40:34;;;;;;;7.03;1.30;;;8.50;64.60;;;;;;5002824;28;20391;-73
2021/04/13 08:43:32;;;;;;;4.57;0.63;;;8.40;63.10;;;;;;5034548;28;20033;-75
2021/04/13 08:46:42;;;;;;;7.33;1.33;;;8.40;65.20;;;;;;5020247;28;20033;-74
2021/04/13 08:49:21;;;;;;;7.23;0.73;;;8.50;66.80;;;;;;5016482;28;20559;-75
2021/04/13 08:51:51;;;;;;;5.93;0.90;;;8.70;66.20;;;;;;5022862;28;20531;-74
2021/04/13 08:54:42;;;;;;;4.43;1.07;;;9.00;66.80;;;;;;5022331;28;20041;-75
2021/04/13 08:57:13;;;;;;;6.37;0.93;;;9.00;65.90;;;;;;5020360;28;20373;-74
2021/04/13 08:59:44;;;;;;;5.13;1.10;;;8.90;62.60;;;;;;5024575;28;20045;-73
2021/04/13 09:02:39;;;;;;;5.90;0.80;;;8.70;63.30;;;;;;5021635;28;20065;-75
2021/04/13 09:05:10;;;;;;;7.50;1.13;;;8.50;63.80;;;;;;5018135;28;20061;-76
2021/04/13 09:07:54;;;;;;;7.13;0.80;;;8.20;65.80;;;;;;5027985;28;20068;-76
2021/04/13 09:10:33;;;;;;;7.63;1.40;;;7.90;68.30;;;;;;5039520;28;20041;-73
2021/04/13 09:13:20;;;;;;;3.47;0.90;;;7.60;71.80;;;;;;5014601;28;20079;-73
2021/04/13 09:15:58;;;;;;;4.63;0.93;;;7.10;74.90;;;;;;5022856;28;20131;-75
2021/04/13 09:18:44;;;;;;;7.90;1.20;;;6.50;79.40;;;;;;5043215;28;20044;-76
2021/04/13 09:21:42;;;;;;;7.57;0.80;;;6.00;82.90;;;;;;5035494;28;20712;-76
2021/04/13 09:24:42;;;;;;;3.30;0.60;;;5.70;85.10;;;;;;5041117;28;20124;-76
2021/04/13 09:27:29;;;;;;;4.70;0.80;;;5.60;85.20;;;;;;5020480;28;20141;-76
2021/04/13 09:29:56;;;;;;;3.43;0.90;;;5.70;86.90;;;;;;5039407;28;20484;-77
2021/04/13 09:32:26;;;;;;;2.97;0.60;;;6.10;88.30;;;;;;5033237;28;20558;-76
2021/04/13 09:35:01;;;;;;;6.23;0.83;;;6.50;86.10;;;;;;5045857;28;20041;-74
2021/04/13 09:37:41;;;;;;;9.97;0.87;;;6.80;85.20;;;;;;5040784;28;20314;-74
2021/04/13 09:40:24;;;;;;;4.45;0.90;;;7.10;83.40;;;;;;5006229;28;20049;-74
2021/04/13 09:43:11;;;;;;;5.30;1.07;;;7.50;81.30;;;;;;5032707;28;20059;-74
2021/04/13 09:46:12;;;;;;;7.03;0.97;;;7.90;80.40;;;;;;5003754;28;20063;-74
2021/04/13 09:49:18;;;;;;;5.83;1.47;;;8.30;77.90;;;;;;5043903;28;20045;-72
2021/04/13 09:52:22;;;;;;;5.63;1.00;;;8.50;77.30;;;;;;5036263;28;20095;-74
2021/04/13 09:55:17;;;;;;;7.20;1.00;;;8.50;72.60;;;;;;5040812;28;20044;-74
2021/04/13 09:58:01;;;;;;;8.93;1.30;;;8.30;69.10;;;;;;5019670;28;20061;-74
2021/04/13 10:00:53;;;;;;;5.97;1.07;;;8.20;70.00;;;;;;5042920;28;20214;-74
2021/04/13 10:03:54;;;;;;;5.83;1.03;;;8.40;72.50;;;;;;5022042;28;20068;-73
2021/04/13 10:06:29;;;;;;;3.27;0.93;;;8.70;70.70;;;;;;5042752;28;20041;-74
2021/04/13 10:09:08;;;;;;;6.47;0.87;;;8.80;65.90;;;;;;5041129;28;20053;-75
2021/04/13 10:12:01;;;;;;;5.83;0.77;;;8.80;63.00;;;;;;5039248;28;20076;-73
2021/04/13 10:14:39;;;;;;;6.65;1.55;;;8.50;63.20;;;;;;5032657;28;20091;-72
2021/04/13 10:17:48;;;;;;;6.37;1.67;;;8.20;63.20;;;;;;5027928;28;20037;-72
2021/04/13 10:20:53;;;;;;;8.27;1.90;;;7.90;64.80;;;;;;5037383;28;20045;-73
2021/04/13 10:24:01;;;;;;;5.17;1.40;;;7.70;63.50;;;;;;5021217;28;20032;-72
2021/04/13 10:27:05;;;;;;;3.37;0.60;;;8.00;66.50;;;;;;5028393;28;20041;-72
2021/04/13 10:29:40;;;;;;;5.50;0.90;;;8.50;64.80;;;;;;5040154;28;20041;-73
2021/04/13 10:32:29;;;;;;;3.53;0.77;;;8.50;62.80;;;;;;5027916;28;20060;-73
2021/04/13 10:35:16;;;;;;;7.50;1.00;;;8.40;61.20;;;;;;5025618;28;20040;-73
2021/04/13 10:38:06;;;;;;;5.63;0.70;;;8.20;62.70;;;;;;5041100;28;20041;-73
2021/04/13 10:40:48;;;;;;;3.10;0.70;;;8.00;65.30;;;;;;5035139;28;20488;-72
2021/04/13 10:43:48;;;;;;;9.43;1.10;;;8.20;67.40;;;;;;5025422;28;20041;-73
2021/04/13 10:46:30;;;;;;;5.53;0.90;;;8.50;68.10;;;;;;5034368;28;20037;-73
2021/04/13 10:49:16;;;;;;;4.73;0.87;;;8.90;66.80;;;;;;5021487;28;20614;-73
2021/04/13 10:52:09;;;;;;;6.87;0.80;;;9.30;61.80;;;;;;5033963;28;20478;-72
2021/04/13 10:55:13;;;;;;;5.60;0.80;;;9.60;62.50;;;;;;5029243;28;20092;-72
2021/04/13 10:58:09;;;;;;;3.63;0.70;;;10.00;60.10;;;;;;5034172;28;20063;-73
2021/04/13 11:01:03;;;;;;;4.47;0.70;;;10.30;59.90;;;;;;5041460;28;20052;-73
2021/04/13 11:04:00;;;;;;;4.07;0.70;;;10.30;56.70;;;;;;5041360;28;20041;-73
2021/04/13 11:06:52;;;;;;;5.77;0.70;;;10.30;54.50;;;;;;5040772;28;21413;-73
2021/04/13 11:09:37;;;;;;;1.80;0.43;;;10.10;53.60;;;;;;5042499;28;20710;-73
2021/04/13 11:12:30;;;;;;;4.10;0.50;;;9.80;49.10;;;;;;5019251;28;20440;-73
2021/04/13 11:15:18;;;;;;;5.63;0.63;;;9.30;48.40;;;;;;5041295;28;20033;-72
2021/04/13 11:17:54;;;;;;;2.53;0.40;;;9.30;56.20;;;;;;5041747;28;20562;-73
2021/04/13 11:20:51;;;;;;;2.83;0.70;;;9.50;56.60;;;;;;5039279;28;20044;-73
2021/04/13 11:23:58;;;;;;;3.67;0.80;;;9.50;56.30;;;;;;5037807;28;20093;-72
2021/04/13 11:26:54;;;;;;;4.13;0.50;;;9.30;55.70;;;;;;4934507;28;20634;-72
2021/04/13 11:30:01;;;;;;;4.70;0.73;;;9.00;56.80;;;;;;4918731;29;20137;-73
2021/04/13 11:32:59;;;;;;;2.00;0.43;;;8.50;59.20;;;;;;5034987;28;20150;-73
2021/04/13 11:35:50;;;;;;;3.67;0.63;;;8.20;60.90;;;;;;5019385;28;20044;-73
2021/04/13 11:38:54;;;;;;;3.37;0.40;;;8.20;64.30;;;;;;5020910;28;20042;-77
2021/04/13 11:41:47;;;;;;;2.97;0.50;;;8.40;63.80;;;;;;5020676;28;20048;-75
2021/04/13 11:44:45;;;;;;;3.93;0.73;;;8.90;62.90;;;;;;5024884;28;20080;-75
2021/04/13 11:47:47;;;;;;;4.30;0.80;;;9.30;62.10;;;;;;5020498;28;20056;-76
2021/04/13 11:50:31;;;;;;;6.47;1.00;;;9.90;62.10;;;;;;5041771;28;20041;-75
2021/04/13 11:53:04;;;;;;;8.23;0.80;;;10.20;60.80;;;;;;5011366;28;20067;-75
2021/04/13 11:55:31;;;;;;;6.37;1.00;;;10.30;56.10;;;;;;5025324;28;20583;-75
2021/04/13 11:58:03;;;;;;;3.80;0.80;;;10.20;56.80;;;;;;5038311;28;20087;-75
2021/04/13 12:00:30;;;;;;;8.83;1.13;;;10.00;58.20;;;;;;5023268;28;20384;-75
2021/04/13 12:03:20;;;;;;;4.57;0.90;;;9.40;59.90;;;;;;4990991;28;20072;-76
2021/04/13 12:05:49;;;;;;;6.87;0.87;;;8.90;63.30;;;;;;5035421;28;20049;-73
2021/04/13 12:08:34;;;;;;;4.80;0.83;;;8.50;65.20;;;;;;5006756;28;20326;-74
2021/04/13 12:11:37;;;;;;;6.20;0.63;;;8.30;65.60;;;;;;5011854;28;20640;-74
2021/04/13 12:14:48;;;;;;;5.80;0.80;;;8.10;65.40;;;;;;4964407;28;20047;-73
2021/04/13 12:17:52;;;;;;;6.07;0.70;;;8.00;65.20;;;;;;5021259;28;20138;-74
2021/04/13 12:20:34;;;;;;;3.23;0.50;;;8.20;64.10;;;;;;4934490;28;20051;-75
2021/04/13 12:23:09;;;;;;;7.13;0.70;;;8.30;63.20;;;;;;5032471;28;20049;-75
2021/04/13 12:25:42;;;;;;;5.13;0.67;;;8.50;62.40;;;;;;5040263;28;20037;-73
2021/04/13 12:28:12;;;;;;;3.60;0.50;;;8.50;62.50;;;;;;5025754;28;20041;-75
2021/04/13 12:30:41;;;;;;;;;;;8.60;58.50;;;;;;5040978;28;20475;-75
2021/04/13 12:33:31;;;;;;;4.17;0.60;;;8.50;58.30;;;;;;5039037;28;20067;-74
2021/04/13 12:36:06;;;;;;;6.00;0.77;;;8.50;59.40;;;;;;5024770;28;20044;-74
2021/04/13 12:38:41;;;;;;;5.63;0.93;;;8.40;60.40;;;;;;4998428;28;20044;-76
2021/04/13 12:41:30;;;;;;;7.73;1.07;;;8.50;61.90;;;;;;5023362;28;21938;-77
2021/04/13 12:44:22;;;;;;;3.70;0.57;;;8.80;63.30;;;;;;5038750;28;20037;-74
2021/04/13 12:46:50;;;;;;;3.83;0.50;;;9.10;61.80;;;;;;5021731;28;20045;-75
2021/04/13 12:49:34;;;;;;;2.70;0.60;;;9.30;58.80;;;;;;5041277;28;20119;-75
2021/04/13 12:52:21;;;;;;;2.00;0.37;;;9.60;55.20;;;;;;5020947;28;20056;-75
2021/04/13 12:54:48;;;;;;;4.70;0.67;;;9.80;54.10;;;;;;5024823;28;20041;-74
2021/04/13 12:57:24;;;;;;;7.30;0.80;;;9.80;55.90;;;;;;5037909;28;20060;-75
2021/04/13 13:00:11;;;;;;;2.17;0.53;;;9.80;57.10;;;;;;5031157;28;20033;-74
2021/04/13 13:02:42;;;;;;;5.03;0.67;;;9.80;56.60;;;;;;5001266;28;20048;-75
2021/04/13 13:05:21;;;;;;;;;;;9.90;55.00;;;;;;5038494;28;20045;-75
2021/04/13 13:07:59;;;;;;;1.80;0.43;;;9.80;54.30;;;;;;5027907;28;20000;-75
2021/04/13 13:10:27;;;;;;;3.23;0.77;;;9.70;53.70;;;;;;5034710;28;20033;-75
2021/04/13 13:13:00;;;;;;;4.03;0.70;;;9.60;52.80;;;;;;5018970;28;20030;-74
2021/04/13 13:15:31;;;;;;;3.60;0.60;;;9.50;54.30;;;;;;5038233;28;20037;-75
2021/04/13 13:18:14;;;;;;;6.00;0.70;;;9.60;54.90;;;;;;5022127;28;20124;-77
2021/04/13 13:20:40;;;;;;;2.83;0.40;;;9.70;55.00;;;;;;5017156;28;20030;-74
2021/04/13 13:23:10;;;;;;;2.67;0.70;;;9.70;55.20;;;;;;4991211;28;20048;-74
2021/04/13 13:25:36;;;;;;;;;;;9.60;52.90;;;;;;5039796;28;20069;-72
2021/04/13 13:28:08;;;;;;;3.07;0.40;;;9.60;53.50;;;;;;5023431;28;19983;-72
2021/04/13 13:30:34;;;;;;;3.33;0.60;;;9.50;51.30;;;;;;5032201;28;20033;-75
2021/04/13 13:33:00;;;;;;;1.83;0.50;;;9.40;53.40;;;;;;5037527;28;20132;-74
2021/04/13 13:35:28;;;;;;;1.90;0.37;;;9.40;53.40;;;;;;5023729;28;20095;-72
2021/04/13 13:37:58;;;;;;;1.87;0.60;;;9.60;53.20;;;;;;5005192;28;20095;-72
2021/04/13 13:40:36;;;;;;;2.10;0.50;;;9.80;54.30;;;;;;5030345;28;20047;-73
2021/04/13 13:43:11;;;;;;;3.57;0.60;;;10.20;52.10;;;;;;5027588;28;20523;-72
2021/04/13 13:45:42;;;;;;;2.67;0.60;;;10.60;52.40;;;;;;5038377;28;20381;-73
2021/04/13 13:48:24;;;;;;;2.90;0.73;;;11.00;52.30;;;;;;5029628;28;20045;-73
2021/04/13 13:51:09;;;;;;;3.92;0.57;;;11.20;52.70;;;;;;5011625;28;20052;-73
2021/04/13 13:53:49;;;;;;;4.65;0.70;;;11.10;50.40;;;;;;5009247;28;20045;-73